createdAt,value
2019-06-15T00:02:30.698Z,97300.86
2019-06-15T00:05:05.307Z,97304.22
2019-06-15T00:07:39.770Z,97295.27
2019-06-15T00:10:12.996Z,97294.52
2019-06-15T00:12:47.273Z,97296.77
2019-06-15T00:15:23.099Z,97283.61
2019-06-15T00:17:57.674Z,97263.51
2019-06-15T00:20:32.264Z,97253.36
2019-06-15T00:23:06.847Z,97228.11
2019-06-15T00:25:41.312Z,97239.77
2019-06-15T00:28:15.931Z,97254.42
2019-06-15T00:30:50.284Z,97225.55
2019-06-15T00:33:24.940Z,97228.42
2019-06-15T00:35:59.291Z,97235.19
2019-06-15T00:38:33.938Z,97278.84
2019-06-15T00:41:08.312Z,97324.34
2019-06-15T00:43:42.816Z,97317.02
2019-06-15T00:46:15.869Z,97309.16
2019-06-15T00:48:50.131Z,97291.86
2019-06-15T00:51:24.705Z,97258.77
2019-06-15T00:53:57.661Z,97238.16
2019-06-15T00:56:31.940Z,97238.16
2019-06-15T00:59:06.435Z,97254.69
2019-06-15T01:01:40.974Z,97267.58
2019-06-15T01:04:15.689Z,97287.55
2019-06-15T01:06:51.159Z,97281.70
2019-06-15T01:09:26.365Z,97283.21
2019-06-15T01:12:00.886Z,97249.02
2019-06-15T01:14:35.267Z,97249.02
2019-06-15T01:17:09.929Z,97258.47
2019-06-15T01:19:44.335Z,97252.05
2019-06-15T01:22:19.877Z,97251.30
2019-06-15T01:25:05.152Z,97248.45
2019-06-15T01:27:30.331Z,97239.61
2019-06-15T01:30:05.270Z,97239.61
2019-06-15T01:32:39.965Z,97230.52
2019-06-15T01:35:15.266Z,97214.81
2019-06-15T01:37:49.937Z,97214.81
2019-06-15T01:40:24.929Z,97228.26
2019-06-15T01:42:59.260Z,97228.26
2019-06-15T01:45:33.908Z,97255.02
2019-06-15T01:48:08.295Z,97243.84
2019-06-15T01:50:42.775Z,97220.25
2019-06-15T01:53:17.266Z,97228.65
2019-06-15T01:55:51.711Z,97229.27
2019-06-15T01:58:24.697Z,97215.16
2019-06-15T02:00:58.912Z,97215.16
2019-06-15T02:03:33.297Z,97216.50
2019-06-15T02:06:07.947Z,97204.39
2019-06-15T02:08:42.302Z,97193.95
2019-06-15T02:11:16.944Z,97198.30
2019-06-15T02:13:51.711Z,97193.48
2019-06-15T02:16:24.898Z,97177.17
2019-06-15T02:18:58.936Z,97177.17
2019-06-15T02:21:33.319Z,97191.53
2019-06-15T02:24:08.215Z,97197.20
2019-06-15T02:26:42.686Z,97201.38
2019-06-15T02:29:17.265Z,97204.37
2019-06-15T02:31:51.723Z,97188.52
2019-06-15T02:34:25.621Z,97171.94
2019-06-15T02:36:59.902Z,97168.19
2019-06-15T02:39:34.740Z,97170.14
2019-06-15T02:44:43.909Z,97165.81
2019-06-15T02:47:18.310Z,97157.58
2019-06-15T02:49:52.877Z,97158.16
2019-06-15T02:52:27.690Z,97151.59
2019-06-15T02:56:09.582Z,97152.20
2019-06-15T02:58:43.970Z,97151.13
2019-06-15T03:01:18.651Z,97141.28
2019-06-15T03:03:51.804Z,97141.28
2019-06-15T03:06:26.278Z,97140.81
2019-06-15T03:09:01.698Z,97144.19
2019-06-15T03:11:36.855Z,97138.62
2019-06-15T03:14:11.282Z,97148.78
2019-06-15T03:16:45.922Z,97132.48
2019-06-15T03:19:20.671Z,97131.26
2019-06-15T03:21:56.121Z,97131.26
2019-06-15T03:24:31.331Z,97135.59
2019-06-15T03:27:06.255Z,97146.02
2019-06-15T03:29:40.737Z,97151.86
2019-06-15T03:32:13.825Z,97144.80
2019-06-15T03:34:48.130Z,97141.34
2019-06-15T03:37:22.935Z,97130.48
2019-06-15T03:42:36.271Z,97133.82
2019-06-15T03:45:11.296Z,97133.92
2019-06-15T03:47:45.867Z,97135.59
2019-06-15T03:50:20.855Z,97134.67
2019-06-15T03:52:55.272Z,97137.09
2019-06-15T03:55:29.894Z,97139.18
2019-06-15T03:58:04.274Z,97139.18
2019-06-15T04:00:54.279Z,97140.52
2019-06-15T04:03:28.736Z,97140.52
2019-06-15T04:06:01.848Z,97147.55
2019-06-15T04:08:36.101Z,97153.70
2019-06-15T04:11:11.842Z,97151.27
2019-06-15T04:13:46.259Z,97151.37
2019-06-15T04:16:20.892Z,97153.63
2019-06-15T04:18:55.313Z,97139.32
2019-06-15T04:21:29.847Z,97156.61
2019-06-15T04:24:04.343Z,97156.78
2019-06-15T04:26:38.870Z,97154.05
2019-06-15T04:29:13.138Z,97141.48
2019-06-15T04:31:47.680Z,97149.77
2019-06-15T04:34:22.281Z,97149.77
2019-06-15T04:36:56.908Z,97144.88
2019-06-15T04:39:33.669Z,97142.22
2019-06-15T04:42:07.990Z,97142.22
2019-06-15T04:44:42.329Z,97158.84
2019-06-15T04:47:17.133Z,97158.84
2019-06-15T04:49:51.707Z,97145.39
2019-06-15T04:52:24.681Z,97145.39
2019-06-15T04:54:59.129Z,97152.95
2019-06-15T04:57:33.737Z,97142.91
2019-06-15T05:00:08.035Z,97138.73
2019-06-15T05:02:42.338Z,97146.39
2019-06-15T05:05:17.099Z,97153.31
2019-06-15T05:07:51.664Z,97146.22
2019-06-15T05:10:24.857Z,97146.22
2019-06-15T05:12:57.672Z,97149.22
2019-06-15T05:15:31.996Z,97147.78
2019-06-15T05:18:06.630Z,97153.50
2019-06-15T05:20:41.138Z,97153.50
2019-06-15T05:23:15.648Z,97157.11
2019-06-15T05:25:50.167Z,97149.81
2019-06-15T05:28:24.672Z,97143.56
2019-06-15T05:30:57.797Z,97143.56
2019-06-15T05:33:32.130Z,97153.58
2019-06-15T05:36:07.499Z,97164.00
2019-06-15T05:38:42.100Z,97167.54
2019-06-15T05:41:16.721Z,97171.77
2019-06-15T05:43:51.282Z,97171.77
2019-06-15T05:46:25.954Z,97173.43
2019-06-15T05:49:01.111Z,97165.53
2019-06-15T05:51:35.787Z,97165.53
2019-06-15T05:54:08.871Z,97167.06
2019-06-15T05:56:42.029Z,97176.37
2019-06-15T05:59:16.945Z,97187.72
2019-06-15T06:01:52.249Z,97175.16
2019-06-15T06:04:27.377Z,97175.16
2019-06-15T06:07:02.267Z,97172.03
2019-06-15T06:09:37.141Z,97193.41
2019-06-15T06:12:12.330Z,97178.33
2019-06-15T06:14:47.329Z,97178.33
2019-06-15T06:17:22.271Z,97183.71
2019-06-15T06:22:23.566Z,97186.41
2019-06-15T06:24:58.682Z,97190.45
2019-06-15T06:27:36.492Z,97193.60
2019-06-15T06:30:09.261Z,97199.41
2019-06-15T06:32:45.738Z,97202.39
2019-06-15T06:35:20.441Z,97197.13
2019-06-15T06:37:55.273Z,97201.53
2019-06-15T06:40:30.288Z,97193.80
2019-06-15T06:43:05.312Z,97191.99
2019-06-15T06:45:40.282Z,97191.99
2019-06-15T06:48:15.949Z,97202.33
2019-06-15T06:50:50.269Z,97207.25
2019-06-15T06:53:24.669Z,97221.75
2019-06-15T06:55:57.769Z,97218.01
2019-06-15T06:58:32.923Z,97213.66
2019-06-15T07:01:07.270Z,97208.12
2019-06-15T07:03:41.685Z,97223.88
2019-06-15T07:06:14.830Z,97231.41
2019-06-15T07:08:48.124Z,97234.78
2019-06-15T07:11:22.775Z,97242.39
2019-06-15T07:13:58.282Z,97242.39
2019-06-15T07:16:32.715Z,97242.80
2019-06-15T07:19:05.862Z,97249.02
2019-06-15T07:21:38.678Z,97248.73
2019-06-15T07:24:12.950Z,97248.33
2019-06-15T07:26:47.800Z,97246.41
2019-06-15T07:29:22.444Z,97246.41
2019-06-15T07:31:57.217Z,97247.68
2019-06-15T07:37:14.884Z,97249.87
2019-06-15T07:39:49.278Z,97253.82
2019-06-15T07:42:24.288Z,97265.50
2019-06-15T07:46:44.349Z,97254.97
2019-06-15T07:49:19.319Z,97253.95
2019-06-15T07:51:54.291Z,97249.28
2019-06-15T07:54:29.389Z,97249.70
2019-06-15T07:57:05.945Z,97236.17
2019-06-15T07:59:40.668Z,97245.84
2019-06-15T08:02:15.133Z,97253.11
2019-06-15T08:04:49.992Z,97250.80
2019-06-15T08:07:25.593Z,97256.16
2019-06-15T08:10:00.659Z,97263.72
2019-06-15T08:12:35.384Z,97263.72
2019-06-15T08:15:11.809Z,97255.39
2019-06-15T08:17:46.324Z,97293.52
2019-06-15T08:20:27.746Z,97275.02
2019-06-15T08:23:02.286Z,97267.48
2019-06-15T08:25:37.098Z,97267.99
2019-06-15T08:28:12.272Z,97270.98
2019-06-15T08:30:48.085Z,97273.45
2019-06-15T08:33:22.697Z,97286.45
2019-06-15T08:35:56.248Z,97286.45
2019-06-15T08:38:31.881Z,97273.22
2019-06-15T08:41:06.316Z,97273.22
2019-06-15T08:43:41.115Z,97264.67
2019-06-15T08:46:15.766Z,97266.92
2019-06-15T08:48:48.862Z,97266.92
2019-06-15T08:51:21.854Z,97279.77
2019-06-15T08:53:56.103Z,97294.39
2019-06-15T08:56:30.733Z,97281.92
2019-06-15T08:59:05.249Z,97281.92
2019-06-15T09:01:40.414Z,97286.97
2019-06-15T09:04:15.107Z,97285.31
2019-06-15T09:06:49.938Z,97285.82
2019-06-15T09:09:24.300Z,97280.30
2019-06-15T09:11:58.884Z,97280.30
2019-06-15T09:14:33.274Z,97284.42
2019-06-15T09:17:08.071Z,97310.37
2019-06-15T09:19:42.333Z,97283.78
2019-06-15T09:22:18.421Z,97300.47
2019-06-15T09:24:53.287Z,97300.47
2019-06-15T09:27:27.915Z,97297.38
2019-06-15T09:30:02.359Z,97308.91
2019-06-15T09:32:36.949Z,97308.91
2019-06-15T09:35:12.653Z,97311.77
2019-06-15T09:37:45.781Z,97311.77
2019-06-15T09:40:20.743Z,97321.64
2019-06-15T09:42:55.336Z,97301.23
2019-06-15T09:45:32.772Z,97309.60
2019-06-15T09:48:06.279Z,97318.66
2019-06-15T09:50:40.705Z,97314.93
2019-06-15T09:53:13.683Z,97319.03
2019-06-15T09:55:47.946Z,97324.58
2019-06-15T09:58:22.279Z,97310.85
2019-06-15T10:00:56.686Z,97323.80
2019-06-15T10:03:29.670Z,97326.63
2019-06-15T10:06:05.684Z,97327.02
2019-06-15T10:08:38.856Z,97328.58
2019-06-15T10:11:11.660Z,97321.85
2019-06-15T10:13:45.941Z,97327.51
2019-06-15T10:16:20.307Z,97339.36
2019-06-15T10:18:54.874Z,97330.16
2019-06-15T10:21:29.099Z,97333.69
2019-06-15T10:24:03.703Z,97358.17
2019-06-15T10:26:38.190Z,97358.17
2019-06-15T10:29:12.671Z,97347.97
2019-06-15T10:31:45.861Z,97342.47
2019-06-15T10:34:19.967Z,97352.46
2019-06-15T10:36:54.651Z,97350.66
2019-06-15T10:39:29.340Z,97350.66
2019-06-15T10:42:03.881Z,97357.78
2019-06-15T10:44:38.266Z,97367.72
2019-06-15T10:47:12.918Z,97368.70
2019-06-15T10:49:47.275Z,97355.73
2019-06-15T10:52:21.881Z,97355.73
2019-06-15T10:54:56.286Z,97368.55
2019-06-15T10:57:31.128Z,97381.24
2019-06-15T11:00:06.266Z,97374.98
2019-06-15T11:02:40.937Z,97374.98
2019-06-15T11:05:18.663Z,97367.77
2019-06-15T11:07:52.955Z,97375.66
2019-06-15T11:10:55.280Z,97382.67
2019-06-15T11:13:30.948Z,97390.37
2019-06-15T11:16:05.580Z,97390.37
2019-06-15T11:18:40.713Z,97386.34
2019-06-15T11:21:13.853Z,97376.16
2019-06-15T11:23:47.105Z,97376.16
2019-06-15T11:26:21.285Z,97367.27
2019-06-15T11:28:55.851Z,97380.14
2019-06-15T11:31:28.845Z,97381.05
2019-06-15T11:34:03.084Z,97381.05
2019-06-15T11:36:37.727Z,97390.36
2019-06-15T11:39:12.284Z,97390.36
2019-06-15T11:41:46.781Z,97388.84
2019-06-15T11:44:21.096Z,97386.52
2019-06-15T11:46:55.624Z,97391.19
2019-06-15T11:49:29.104Z,97391.19
2019-06-15T11:52:03.318Z,97401.73
2019-06-15T11:54:37.941Z,97405.55
2019-06-15T11:57:12.316Z,97409.22
2019-06-15T11:59:47.745Z,97409.22
2019-06-15T12:02:20.749Z,97411.50
2019-06-15T12:04:58.528Z,97402.50
2019-06-15T12:07:34.400Z,97400.98
2019-06-15T12:10:07.055Z,97405.52
2019-06-15T12:12:41.302Z,97413.52
2019-06-15T12:15:17.277Z,97406.61
2019-06-15T12:17:51.746Z,97397.55
2019-06-15T12:20:26.267Z,97396.89
2019-06-15T12:23:01.413Z,97410.41
2019-06-15T12:25:36.270Z,97419.63
2019-06-15T12:28:11.234Z,97424.70
2019-06-15T12:30:47.752Z,97416.63
2019-06-15T12:33:22.271Z,97425.67
2019-06-15T12:35:56.759Z,97427.80
2019-06-15T12:38:31.328Z,97425.42
2019-06-15T12:41:05.962Z,97425.02
2019-06-15T12:43:40.643Z,97431.34
2019-06-15T12:46:15.115Z,97431.34
2019-06-15T12:48:49.681Z,97439.23
2019-06-15T12:51:25.242Z,97439.23
2019-06-15T12:53:59.739Z,97449.59
2019-06-15T12:56:32.723Z,97448.14
2019-06-15T12:59:07.117Z,97458.98
2019-06-15T13:01:41.661Z,97456.82
2019-06-15T13:04:15.944Z,97455.47
2019-06-15T13:06:48.861Z,97455.47
2019-06-15T13:09:21.856Z,97467.69
2019-06-15T13:11:54.825Z,97458.41
2019-06-15T13:14:29.752Z,97463.16
2019-06-15T13:17:02.848Z,97469.80
2019-06-15T13:19:35.643Z,97467.12
2019-06-15T13:22:09.985Z,97479.47
2019-06-15T13:24:44.685Z,97475.34
2019-06-15T13:27:17.794Z,97467.56
2019-06-15T13:29:52.128Z,97484.56
2019-06-15T13:32:26.667Z,97492.02
2019-06-15T13:35:01.114Z,97492.02
2019-06-15T13:37:41.956Z,97472.09
2019-06-15T13:40:11.941Z,97475.03
2019-06-15T13:42:46.639Z,97470.20
2019-06-15T13:45:21.311Z,97466.73
2019-06-15T13:47:55.785Z,97466.73
2019-06-15T13:50:28.845Z,97464.54
2019-06-15T13:53:02.041Z,97457.91
2019-06-15T13:55:36.240Z,97466.80
2019-06-15T13:58:10.748Z,97467.03
2019-06-15T14:00:43.773Z,97464.42
2019-06-15T14:03:18.234Z,97474.48
2019-06-15T14:05:52.703Z,97478.80
2019-06-15T14:08:26.946Z,97483.17
2019-06-15T14:11:02.753Z,97498.81
2019-06-15T14:13:37.291Z,97498.81
2019-06-15T14:16:11.870Z,97489.59
2019-06-15T14:18:46.280Z,97487.00
2019-06-15T14:21:20.858Z,97486.13
2019-06-15T14:24:39.290Z,97481.29
2019-06-15T14:27:13.937Z,97506.13
2019-06-15T14:29:48.271Z,97506.13
2019-06-15T14:32:22.886Z,97503.89
2019-06-15T14:37:45.719Z,97493.87
2019-06-15T14:40:19.061Z,97490.75
2019-06-15T14:44:59.747Z,97504.41
2019-06-15T14:47:34.406Z,97495.91
2019-06-15T14:50:09.295Z,97494.83
2019-06-15T14:52:43.947Z,97492.05
2019-06-15T14:55:18.883Z,97482.23
2019-06-15T14:57:53.437Z,97482.23
2019-06-15T15:00:28.299Z,97485.95
2019-06-15T15:03:03.122Z,97488.27
2019-06-15T15:05:37.845Z,97492.42
2019-06-15T15:08:12.369Z,97496.28
2019-06-15T15:10:46.894Z,97487.28
2019-06-15T15:13:21.324Z,97489.98
2019-06-15T15:15:56.937Z,97491.97
2019-06-15T15:18:31.715Z,97483.95
2019-06-15T15:21:06.818Z,97480.97
2019-06-15T15:23:41.652Z,97472.41
2019-06-15T15:26:16.973Z,97472.41
2019-06-15T15:28:50.863Z,97472.77
2019-06-15T15:31:27.093Z,97470.19
2019-06-15T15:34:03.977Z,97457.92
2019-06-15T15:36:36.952Z,97456.22
2019-06-15T15:39:11.849Z,97456.48
2019-06-15T15:41:47.013Z,97456.48
2019-06-15T15:44:21.385Z,97456.60
2019-06-15T15:46:56.916Z,97445.14
2019-06-15T15:49:32.462Z,97448.74
2019-06-15T15:52:06.931Z,97455.20
2019-06-15T15:54:41.338Z,97452.19
2019-06-15T15:57:17.213Z,97453.91
2019-06-15T15:59:51.951Z,97472.12
2019-06-15T16:02:35.632Z,97467.52
2019-06-15T16:05:02.295Z,97471.22
2019-06-15T16:07:36.906Z,97479.39
2019-06-15T16:10:12.679Z,97483.75
2019-06-15T16:12:46.417Z,97476.25
2019-06-15T16:15:20.893Z,97483.91
2019-06-15T16:17:56.348Z,97488.13
2019-06-15T16:20:30.106Z,97489.73
2019-06-15T16:23:07.182Z,97474.59
2019-06-15T16:25:41.281Z,97474.59
2019-06-15T16:28:15.689Z,97473.09
2019-06-15T16:31:04.984Z,97480.77
2019-06-15T16:33:26.616Z,97498.97
2019-06-15T16:36:01.810Z,97502.05
2019-06-15T16:38:37.475Z,97500.26
2019-06-15T16:41:12.932Z,97498.50
2019-06-15T16:43:48.392Z,97511.42
2019-06-15T16:46:26.332Z,97499.47
2019-06-15T16:49:05.571Z,97499.47
2019-06-15T16:51:40.527Z,97509.39
2019-06-15T16:54:16.584Z,97509.58
2019-06-15T16:56:51.444Z,97509.77
2019-06-15T16:59:27.310Z,97513.97
2019-06-15T17:02:02.988Z,97515.69
2019-06-15T17:04:37.963Z,97509.62
2019-06-15T17:07:12.919Z,97507.96
2019-06-15T17:09:47.686Z,97507.96
2019-06-15T17:12:21.058Z,97520.22
2019-06-15T17:14:55.467Z,97521.73
2019-06-15T17:17:30.143Z,97521.73
2019-06-15T17:20:06.463Z,97526.84
2019-06-15T17:22:41.083Z,97533.90
2019-06-15T17:25:16.606Z,97542.01
2019-06-15T17:27:50.082Z,97544.11
2019-06-15T17:30:26.395Z,97548.48
2019-06-15T17:33:04.746Z,97548.48
2019-06-15T17:35:37.078Z,97566.50
2019-06-15T17:38:11.678Z,97571.42
2019-06-15T17:40:46.245Z,97571.42
2019-06-15T17:43:20.875Z,97572.75
2019-06-15T17:45:56.502Z,97579.38
2019-06-15T17:48:31.139Z,97581.77
2019-06-15T17:51:06.602Z,97581.04
2019-06-15T17:53:40.121Z,97581.04
2019-06-15T17:56:16.257Z,97584.48
2019-06-15T17:58:50.481Z,97572.48
2019-06-15T18:01:26.518Z,97572.48
2019-06-15T18:04:01.494Z,97587.58
2019-06-15T18:06:36.431Z,97580.67
2019-06-15T18:09:11.281Z,97584.72
2019-06-15T18:11:46.411Z,97578.57
2019-06-15T18:16:38.519Z,97569.57
2019-06-15T18:19:13.270Z,97558.44
2019-06-15T18:21:47.863Z,97562.48
2019-06-15T18:24:22.960Z,97561.83
2019-06-15T18:26:57.711Z,97565.88
2019-06-15T18:29:36.798Z,97565.88
2019-06-15T18:32:11.281Z,97562.86
2019-06-15T18:34:46.572Z,97566.86
2019-06-15T18:39:43.022Z,97558.91
2019-06-15T18:42:18.303Z,97566.52
2019-06-15T18:44:52.973Z,97577.56
2019-06-15T18:47:27.691Z,97579.99
2019-06-15T18:50:01.132Z,97579.99
2019-06-15T18:55:08.643Z,97603.98
2019-06-15T18:57:43.295Z,97603.98
2019-06-15T19:00:18.431Z,97612.95
2019-06-15T19:02:53.287Z,97622.32
2019-06-15T19:05:27.899Z,97622.32
2019-06-15T19:08:01.047Z,97622.58
2019-06-15T19:10:36.737Z,97626.69
2019-06-15T19:13:10.690Z,97627.77
2019-06-15T19:15:46.460Z,97630.69
2019-06-15T19:18:21.283Z,97637.06
2019-06-15T19:20:56.323Z,97632.97
2019-06-15T19:23:31.125Z,97633.80
2019-06-15T19:26:06.352Z,97626.25
2019-06-15T19:28:41.126Z,97635.67
2019-06-15T19:31:15.662Z,97640.19
2019-06-15T19:33:50.468Z,97645.59
2019-06-15T19:36:26.400Z,97645.59
2019-06-15T19:39:01.298Z,97665.05
2019-06-15T19:42:42.733Z,97676.16
2019-06-15T19:45:16.945Z,97681.10
2019-06-15T19:47:51.667Z,97689.33
2019-06-15T19:50:26.828Z,97689.33
2019-06-15T19:53:01.593Z,97698.44
2019-06-15T19:55:37.290Z,97710.36
2019-06-15T19:58:11.909Z,97724.20
2019-06-15T20:00:47.028Z,97730.45
2019-06-15T20:03:21.875Z,97730.45
2019-06-15T20:05:56.846Z,97730.45
2019-06-15T20:08:31.322Z,97722.84
2019-06-15T20:11:07.298Z,97728.72
2019-06-15T20:13:41.947Z,97714.23
2019-06-15T20:16:16.594Z,97714.23
2019-06-15T20:18:51.113Z,97719.03
2019-06-15T20:23:16.642Z,97702.36
2019-06-15T20:25:51.283Z,97702.81
2019-06-15T20:28:27.274Z,97697.33
2019-06-15T20:31:02.144Z,97698.20
2019-06-15T20:33:37.117Z,97697.33
2019-06-15T20:36:12.078Z,97698.87
2019-06-15T20:38:46.988Z,97702.28
2019-06-15T20:41:21.364Z,97711.95
2019-06-15T20:43:56.620Z,97704.58
2019-06-15T20:46:29.713Z,97704.58
2019-06-15T20:49:06.604Z,97715.78
2019-06-15T21:06:59.433Z,97759.48
2019-06-15T21:09:36.424Z,97770.66
2019-06-15T21:12:10.297Z,97772.55
2019-06-15T21:14:47.017Z,97780.32
2019-06-15T21:17:21.508Z,97782.20
2019-06-15T21:19:55.966Z,97792.41
2019-06-15T21:22:30.319Z,97805.08
2019-06-15T21:25:06.821Z,97805.08
2019-06-15T21:27:41.663Z,97804.69
2019-06-15T21:30:16.679Z,97804.69
2019-06-15T21:32:52.275Z,97812.81
2019-06-15T21:35:26.961Z,97816.59
2019-06-15T21:38:01.387Z,97817.72
2019-06-15T21:40:36.833Z,97830.19
2019-06-15T21:43:11.685Z,97840.75
2019-06-15T21:45:46.442Z,97840.75
2019-06-15T21:48:21.296Z,97845.81
2019-06-15T21:50:59.171Z,97845.42
2019-06-15T21:53:32.133Z,97842.22
2019-06-15T21:56:07.265Z,97842.03
2019-06-15T21:58:42.287Z,97845.98
2019-06-15T22:01:33.796Z,97845.98
2019-06-15T23:12:36.911Z,97924.22
2019-06-15T23:15:10.899Z,97924.22
2019-06-15T23:17:46.695Z,97921.95
2019-06-15T23:20:21.343Z,97927.42
2019-06-15T23:22:56.214Z,97922.32
2019-06-15T23:25:30.839Z,97930.04
2019-06-15T23:28:04.026Z,97914.20
2019-06-15T23:30:38.307Z,97905.45
2019-06-15T23:33:12.869Z,97908.30
2019-06-15T23:35:51.465Z,97908.30
2019-06-15T23:38:26.964Z,97918.11
2019-06-15T23:41:01.778Z,97913.56
2019-06-15T23:43:36.329Z,97904.48
2019-06-15T23:46:10.941Z,97902.05
2019-06-15T23:48:47.033Z,97899.98
2019-06-15T23:51:21.277Z,97906.55
2019-06-15T23:53:57.187Z,97911.99
2019-06-15T23:56:31.823Z,97908.33
2019-06-15T23:59:06.935Z,97908.33
